Time;durP1;ratioP1;P1;durP2;ratioP2;P2;SDS_P1;SDS_P2;PMS_P1;PMS_P2;Temp;Humidity;BMP_temperature;BMP_pressure;BME280_temperature;BME280_humidity;BME280_pressure;Samples;Min_cycle;Max_cycle;Signal;HPM_P1;HPM_P2
2023/01/21 00:02:11;;;;;;;;;;;-0.50;99.90;;;;;;5020808;28;19910;-79
2023/01/21 00:04:37;;;;;;;;;;;-0.50;99.90;;;;;;4999181;28;20017;-79
2023/01/21 00:07:03;;;;;;;;;;;-0.50;99.90;;;;;;5019447;28;20386;-79
2023/01/21 00:09:31;;;;;;;;;;;-0.50;99.90;;;;;;5022300;28;20003;-79
2023/01/21 00:11:57;;;;;;;;;;;-0.50;99.90;;;;;;5019140;28;20286;-78
2023/01/21 00:14:23;;;;;;;;;;;-0.50;99.90;;;;;;5002893;28;19909;-78
2023/01/21 00:16:48;;;;;;;;;;;-0.50;99.90;;;;;;5025844;28;20286;-78
2023/01/21 00:19:14;;;;;;;;;;;-0.50;99.90;;;;;;5037338;28;19937;-79
2023/01/21 00:21:40;;;;;;;;;;;-0.50;99.90;;;;;;5019877;28;19910;-80
2023/01/21 00:24:05;;;;;;;;;;;-0.50;99.90;;;;;;5021836;28;19910;-78
2023/01/21 00:26:31;;;;;;;;;;;-0.60;99.90;;;;;;5019550;28;20302;-78
2023/01/21 00:28:56;;;;;;;;;;;-0.60;99.90;;;;;;5018640;28;19925;-79
2023/01/21 00:31:22;;;;;;;;;;;-0.60;99.90;;;;;;5012011;28;19960;-78
2023/01/21 00:33:49;;;;;;;;;;;-0.60;99.90;;;;;;4981592;28;19968;-78
2023/01/21 00:36:17;;;;;;;;;;;-0.70;99.90;;;;;;4999277;28;19909;-79
2023/01/21 00:38:42;;;;;;;;;;;-0.60;99.90;;;;;;5016845;28;20342;-79
2023/01/21 00:41:09;;;;;;;;;;;-0.60;99.90;;;;;;5016996;28;19929;-78
2023/01/21 00:43:35;;;;;;;;;;;-0.60;99.90;;;;;;5001792;28;19918;-78
2023/01/21 00:46:00;;;;;;;;;;;-0.60;99.90;;;;;;5018422;28;19952;-78
2023/01/21 00:48:27;;;;;;;;;;;-0.60;99.90;;;;;;5016544;28;19920;-79
2023/01/21 00:50:54;;;;;;;;;;;-0.60;99.90;;;;;;5017373;28;19917;-79
2023/01/21 00:53:23;;;;;;;;;;;-0.70;99.90;;;;;;5017412;28;19919;-79
2023/01/21 00:55:48;;;;;;;;;;;-0.70;99.90;;;;;;5017116;28;19910;-76
2023/01/21 00:58:14;;;;;;;;;;;-0.70;99.90;;;;;;5003521;28;19921;-78
2023/01/21 01:00:39;;;;;;;;;;;-0.70;99.90;;;;;;5039577;28;19940;-78
2023/01/21 01:03:05;;;;;;;;;;;-0.70;99.90;;;;;;5021959;28;19917;-78
2023/01/21 01:05:31;;;;;;;;;;;-0.70;99.90;;;;;;5000668;28;19944;-77
2023/01/21 01:07:56;;;;;;;;;;;-0.80;99.90;;;;;;5017897;28;20062;-78
2023/01/21 01:10:22;;;;;;;;;;;-0.80;99.90;;;;;;5017760;28;20365;-79
2023/01/21 01:12:47;;;;;;;;;;;-0.80;99.90;;;;;;5017054;28;19921;-78
2023/01/21 01:15:13;;;;;;;;;;;-0.80;99.90;;;;;;5022833;28;19964;-77
2023/01/21 01:17:39;;;;;;;;;;;-0.80;99.90;;;;;;5022836;28;19920;-77
2023/01/21 01:20:05;;;;;;;;;;;-0.80;99.90;;;;;;5020363;28;19939;-77
2023/01/21 01:22:30;;;;;;;;;;;-0.80;99.90;;;;;;5021010;28;19959;-77
2023/01/21 01:24:56;;;;;;;;;;;-0.90;99.90;;;;;;5020100;28;19969;-78
2023/01/21 01:27:21;;;;;;;;;;;-0.80;99.90;;;;;;5014835;28;20024;-77
2023/01/21 01:29:47;;;;;;;;;;;-0.80;99.90;;;;;;5013648;28;19953;-78
2023/01/21 01:32:12;;;;;;;;;;;-0.80;99.90;;;;;;5010791;28;19952;-77
2023/01/21 01:34:38;;;;;;;;;;;-0.80;99.90;;;;;;5017514;28;19917;-77
2023/01/21 01:37:04;;;;;;;;;;;-0.80;99.90;;;;;;5032668;28;19996;-76
2023/01/21 01:39:30;;;;;;;;;;;-0.80;99.90;;;;;;5033123;28;19905;-76
2023/01/21 01:41:57;;;;;;;;;;;-0.80;99.90;;;;;;5033402;28;19910;-77
2023/01/21 01:44:41;;;;;;;;;;;-0.90;99.90;;;;;;5025525;28;19976;-77
2023/01/21 01:47:07;;;;;;;;;;;-0.90;99.90;;;;;;5014404;28;19918;-77
2023/01/21 01:49:32;;;;;;;;;;;-0.90;99.90;;;;;;5013596;28;20004;-77
2023/01/21 01:52:00;;;;;;;;;;;-1.00;99.90;;;;;;4996304;28;19909;-77
2023/01/21 01:54:30;;;;;;;;;;;-1.00;99.90;;;;;;5014543;28;19961;-77
2023/01/21 01:56:57;;;;;;;;;;;-1.00;99.90;;;;;;5030074;28;19961;-77
2023/01/21 01:59:23;;;;;;;;;;;-1.00;99.90;;;;;;5014639;28;19910;-77
2023/01/21 02:01:49;;;;;;;;;;;-1.00;99.90;;;;;;5005306;28;19910;-78
2023/01/21 02:04:19;;;;;;;;;;;-1.00;99.90;;;;;;4994816;28;19910;-77
2023/01/21 02:06:46;;;;;;;;;;;-1.10;99.90;;;;;;4995832;28;19910;-78
2023/01/21 02:09:12;;;;;;;;;;;-1.00;99.90;;;;;;4996314;28;19910;-78
2023/01/21 02:11:37;;;;;;;;;;;-1.00;99.90;;;;;;5012950;28;19920;-79
2023/01/21 02:14:03;;;;;;;;;;;-1.10;99.90;;;;;;5014597;28;19898;-77
2023/01/21 02:16:49;;;;;;;;;;;-1.10;99.90;;;;;;5014968;28;19956;-77
2023/01/21 02:19:33;;;;;;;;;;;-1.10;99.90;;;;;;4976348;28;19917;-77
2023/01/21 02:22:05;;;;;;;;;;;-1.10;99.90;;;;;;5014468;28;19968;-77
2023/01/21 02:24:34;;;;;;;;;;;-1.10;99.90;;;;;;4978368;28;19948;-77
2023/01/21 02:27:02;;;;;;;;;;;-1.10;99.90;;;;;;4996209;28;19949;-78
2023/01/21 02:29:46;;;;;;;;;;;-1.10;99.90;;;;;;5008364;28;19909;-78
2023/01/21 02:32:23;;;;;;;;;;;-1.00;99.90;;;;;;4994228;28;19964;-79
2023/01/21 02:34:56;;;;;;;;;;;-1.10;99.90;;;;;;5015330;28;19921;-79
2023/01/21 02:37:36;;;;;;;;;;;-1.00;99.90;;;;;;5017312;28;20002;-79
2023/01/21 02:40:09;;;;;;;;;;;-1.00;99.90;;;;;;5019392;28;19909;-79
2023/01/21 02:42:45;;;;;;;;;;;-1.00;99.90;;;;;;5018993;28;20271;-79
2023/01/21 02:45:20;;;;;;;;;;;-1.00;99.90;;;;;;5020005;28;19972;-78
2023/01/21 02:47:49;;;;;;;;;;;-1.00;99.90;;;;;;5018961;28;19951;-78
2023/01/21 02:50:16;;;;;;;;;;;-1.00;99.90;;;;;;5018859;28;19929;-79
2023/01/21 02:52:42;;;;;;;;;;;-1.00;99.90;;;;;;5018898;28;19924;-78
2023/01/21 02:55:12;;;;;;;;;;;-1.00;99.90;;;;;;5021695;28;20000;-76
2023/01/21 02:57:38;;;;;;;;;;;-1.00;99.90;;;;;;5017251;28;19957;-77
2023/01/21 03:00:10;;;;;;;;;;;-1.00;99.90;;;;;;4998160;28;20009;-77
2023/01/21 03:02:38;;;;;;;;;;;-1.00;99.90;;;;;;5012370;28;19913;-77
2023/01/21 03:05:05;;;;;;;;;;;-1.00;99.90;;;;;;5017041;28;19917;-77
2023/01/21 03:07:32;;;;;;;;;;;-1.00;99.90;;;;;;5017301;28;19920;-78
2023/01/21 03:10:18;;;;;;;;;;;-1.00;99.90;;;;;;5016782;28;19910;-78
2023/01/21 03:12:51;;;;;;;;;;;-1.00;99.90;;;;;;5016105;28;19952;-78
2023/01/21 03:18:11;;;;;;;;;;;-1.00;99.90;;;;;;5019503;28;19995;-77
2023/01/21 03:20:39;;;;;;;;;;;-1.00;99.90;;;;;;5017458;28;19918;-77
2023/01/21 03:23:07;;;;;;;;;;;-1.00;99.90;;;;;;5018187;28;19922;-77
2023/01/21 03:25:33;;;;;;;;;;;-1.00;99.90;;;;;;5022360;28;19948;-77
2023/01/21 03:28:00;;;;;;;;;;;-1.00;99.90;;;;;;5021989;28;19984;-78
2023/01/21 03:30:26;;;;;;;;;;;-1.00;99.90;;;;;;5022800;28;19940;-77
2023/01/21 03:32:53;;;;;;;;;;;-1.00;99.90;;;;;;5007569;28;19916;-77
2023/01/21 03:35:30;;;;;;;;;;;-1.00;99.90;;;;;;5022037;28;19940;-77
2023/01/21 03:37:59;;;;;;;;;;;-1.00;99.90;;;;;;5021388;28;19914;-77
2023/01/21 03:40:29;;;;;;;;;;;-1.00;99.90;;;;;;5019175;28;20008;-77
2023/01/21 03:42:55;;;;;;;;;;;-1.00;99.90;;;;;;5021099;28;19964;-77
2023/01/21 03:45:25;;;;;;;;;;;-1.00;99.90;;;;;;5015843;28;19917;-77
2023/01/21 03:47:55;;;;;;;;;;;-1.00;99.90;;;;;;5017153;28;19914;-79
2023/01/21 03:50:31;;;;;;;;;;;-1.00;99.90;;;;;;5018241;28;20307;-77
2023/01/21 03:52:57;;;;;;;;;;;-1.10;99.90;;;;;;5017349;28;19988;-79
2023/01/21 03:55:23;;;;;;;;;;;-1.00;99.90;;;;;;5016912;28;20418;-79
2023/01/21 03:57:48;;;;;;;;;;;-1.00;99.90;;;;;;5021116;28;19981;-79
2023/01/21 04:00:14;;;;;;;;;;;-0.90;99.90;;;;;;5025284;28;20066;-77
2023/01/21 04:02:40;;;;;;;;;;;-0.90;99.90;;;;;;5014780;28;19925;-78
2023/01/21 04:05:06;;;;;;;;;;;-1.00;99.90;;;;;;5017838;28;19921;-79
2023/01/21 04:07:31;;;;;;;;;;;-1.00;99.90;;;;;;5001740;28;19985;-79
2023/01/21 04:09:57;;;;;;;;;;;-1.00;99.90;;;;;;5018378;28;19918;-78
2023/01/21 04:12:22;;;;;;;;;;;-1.10;99.90;;;;;;5017631;28;19956;-78
2023/01/21 04:14:47;;;;;;;;;;;-1.10;99.90;;;;;;5023230;28;20012;-78
2023/01/21 04:17:13;;;;;;;;;;;-1.00;99.90;;;;;;5029234;28;19972;-77
2023/01/21 04:19:38;;;;;;;;;;;-1.00;99.90;;;;;;5029612;28;20013;-77
2023/01/21 04:22:04;;;;;;;;;;;-1.10;99.90;;;;;;5030316;28;20034;-77
2023/01/21 04:24:29;;;;;;;;;;;-1.00;99.90;;;;;;5007918;28;19917;-78
2023/01/21 04:26:55;;;;;;;;;;;-1.00;99.90;;;;;;5026185;28;19910;-77
2023/01/21 04:29:21;;;;;;;;;;;-1.00;99.90;;;;;;5026171;28;19921;-78
2023/01/21 04:31:47;;;;;;;;;;;-1.00;99.90;;;;;;5016662;28;19947;-78
2023/01/21 04:34:12;;;;;;;;;;;-1.00;99.90;;;;;;5005471;28;19910;-78
2023/01/21 04:36:38;;;;;;;;;;;-1.00;99.90;;;;;;5003899;28;19963;-78
2023/01/21 04:39:03;;;;;;;;;;;-1.10;99.90;;;;;;5007865;28;19921;-78
2023/01/21 04:41:29;;;;;;;;;;;-1.00;99.90;;;;;;5004188;28;19927;-79
2023/01/21 04:43:54;;;;;;;;;;;-1.00;99.90;;;;;;5018818;28;20299;-78
2023/01/21 04:46:20;;;;;;;;;;;-1.10;99.90;;;;;;5020262;28;20091;-78
2023/01/21 04:48:45;;;;;;;;;;;-1.10;99.90;;;;;;5021328;28;19898;-78
2023/01/21 04:51:11;;;;;;;;;;;-1.10;99.90;;;;;;5022080;28;20008;-77
2023/01/21 04:53:41;;;;;;;;;;;-1.10;99.90;;;;;;5003851;28;19909;-78
2023/01/21 04:56:07;;;;;;;;;;;-1.10;99.90;;;;;;5002594;28;20378;-78
2023/01/21 04:58:33;;;;;;;;;;;-1.10;99.90;;;;;;5023055;28;20013;-78
2023/01/21 05:00:58;;;;;;;;;;;-1.10;99.90;;;;;;5019409;28;19917;-78
2023/01/21 05:03:24;;;;;;;;;;;-1.10;99.90;;;;;;5010013;28;19918;-77
2023/01/21 05:05:50;;;;;;;;;;;-1.10;99.90;;;;;;5014247;28;19910;-78
2023/01/21 05:08:16;;;;;;;;;;;-1.10;99.90;;;;;;5029248;28;19940;-78
2023/01/21 05:10:41;;;;;;;;;;;-1.10;99.90;;;;;;5027804;28;19992;-78
2023/01/21 05:13:07;;;;;;;;;;;-1.10;99.90;;;;;;5028403;28;19918;-78
2023/01/21 05:15:32;;;;;;;;;;;-1.10;99.90;;;;;;5029330;28;19917;-78
2023/01/21 05:17:59;;;;;;;;;;;-1.10;99.90;;;;;;5033725;28;19910;-78
2023/01/21 05:20:25;;;;;;;;;;;-1.20;99.90;;;;;;5028987;28;19909;-78
2023/01/21 05:22:50;;;;;;;;;;;-1.20;99.90;;;;;;5031056;28;19977;-78
2023/01/21 05:25:16;;;;;;;;;;;-1.30;99.90;;;;;;5032955;28;19924;-78
2023/01/21 05:27:41;;;;;;;;;;;-1.30;99.90;;;;;;5034339;28;19913;-78
2023/01/21 05:30:07;;;;;;;;;;;-1.40;99.90;;;;;;5009783;28;19913;-78
2023/01/21 05:32:35;;;;;;;;;;;-1.40;99.90;;;;;;5035763;28;19902;-78
2023/01/21 05:35:02;;;;;;;;;;;-1.40;99.90;;;;;;5017332;28;19902;-77
2023/01/21 05:37:27;;;;;;;;;;;-1.50;99.90;;;;;;5035570;28;19917;-77
2023/01/21 05:39:53;;;;;;;;;;;-1.50;99.90;;;;;;5034804;28;20205;-77
2023/01/21 05:42:18;;;;;;;;;;;-1.60;99.90;;;;;;5033822;28;19972;-79
2023/01/21 05:44:44;;;;;;;;;;;-1.60;99.90;;;;;;5027386;28;19921;-77
2023/01/21 05:47:09;;;;;;;;;;;-1.70;99.90;;;;;;5010753;28;19910;-78
2023/01/21 05:49:35;;;;;;;;;;;-1.70;99.90;;;;;;5028209;28;19909;-78
2023/01/21 05:52:00;;;;;;;;;;;-1.70;99.90;;;;;;5030977;28;20366;-77
2023/01/21 05:54:26;;;;;;;;;;;-1.70;99.90;;;;;;5032853;28;19909;-78
2023/01/21 05:56:51;;;;;;;;;;;-1.70;99.90;;;;;;5026848;28;19910;-78
2023/01/21 05:59:17;;;;;;;;;;;-1.70;99.90;;;;;;5023127;28;19928;-78
2023/01/21 06:01:42;;;;;;;;;;;-1.70;99.90;;;;;;5000775;28;19910;-78
2023/01/21 06:04:08;;;;;;;;;;;-1.70;99.90;;;;;;5005964;28;19914;-78
2023/01/21 06:06:34;;;;;;;;;;;-1.70;99.90;;;;;;5021470;28;19989;-78
2023/01/21 06:08:59;;;;;;;;;;;-1.70;99.90;;;;;;5021615;28;19910;-79
2023/01/21 06:11:25;;;;;;;;;;;-1.70;99.90;;;;;;5018219;28;20347;-77
2023/01/21 06:13:50;;;;;;;;;;;-1.70;99.90;;;;;;5017223;28;19913;-76
2023/01/21 06:16:16;;;;;;;;;;;-1.60;99.90;;;;;;5016329;28;19917;-77
2023/01/21 06:18:41;;;;;;;;;;;-1.50;99.90;;;;;;5018106;28;19922;-76
2023/01/21 06:21:06;;;;;;;;;;;-1.50;99.90;;;;;;5018308;28;19918;-77
2023/01/21 06:23:32;;;;;;;;;;;-1.60;99.90;;;;;;5017984;28;20387;-77
2023/01/21 06:26:01;;;;;;;;;;;-1.60;99.90;;;;;;5009190;28;19941;-76
2023/01/21 06:28:26;;;;;;;;;;;-1.60;99.90;;;;;;5027137;28;19909;-77
2023/01/21 06:30:52;;;;;;;;;;;-1.60;99.90;;;;;;5024780;28;19932;-77
2023/01/21 06:33:18;;;;;;;;;;;-1.60;99.90;;;;;;4990327;28;19914;-77
2023/01/21 06:35:43;;;;;;;;;;;-1.60;99.90;;;;;;5024743;28;19917;-76
2023/01/21 06:38:09;;;;;;;;;;;-1.60;99.90;;;;;;5023122;28;19922;-76
2023/01/21 06:40:34;;;;;;;;;;;-1.60;99.90;;;;;;5007548;28;19959;-77
2023/01/21 06:43:00;;;;;;;;;;;-1.60;99.90;;;;;;5000043;28;19991;-76
2023/01/21 06:45:25;;;;;;;;;;;-1.60;99.90;;;;;;5016594;28;19925;-77
2023/01/21 06:47:51;;;;;;;;;;;-1.60;99.90;;;;;;5000037;28;20495;-77
2023/01/21 06:50:17;;;;;;;;;;;-1.70;99.90;;;;;;5019508;28;19918;-77
2023/01/21 06:52:43;;;;;;;;;;;-1.70;99.90;;;;;;5021880;28;19908;-77
2023/01/21 06:55:08;;;;;;;;;;;-1.70;99.90;;;;;;5017667;28;20390;-77
2023/01/21 06:57:34;;;;;;;;;;;-1.70;99.90;;;;;;5016163;28;20028;-77
2023/01/21 06:59:59;;;;;;;;;;;-1.70;99.90;;;;;;5019228;28;19964;-77
2023/01/21 07:02:25;;;;;;;;;;;-1.70;99.90;;;;;;5001993;28;20005;-77
2023/01/21 07:04:51;;;;;;;;;;;-1.60;99.90;;;;;;5000794;28;19918;-77
2023/01/21 07:07:17;;;;;;;;;;;-1.70;99.90;;;;;;5017816;28;19921;-77
2023/01/21 07:09:42;;;;;;;;;;;-1.70;99.90;;;;;;4999235;28;20008;-77
2023/01/21 07:12:08;;;;;;;;;;;-1.70;99.90;;;;;;5016651;28;20000;-77
2023/01/21 07:14:33;;;;;;;;;;;-1.70;99.90;;;;;;4998832;28;19916;-77
2023/01/21 07:16:59;;;;;;;;;;;-1.70;99.90;;;;;;5016692;28;19914;-77
2023/01/21 07:19:24;;;;;;;;;;;-1.70;99.90;;;;;;5016891;28;19913;-77
2023/01/21 07:21:50;;;;;;;;;;;-1.70;99.90;;;;;;5017438;28;19955;-77
2023/01/21 07:24:15;;;;;;;;;;;-1.70;99.90;;;;;;5015850;28;19909;-77
2023/01/21 07:26:42;;;;;;;;;;;-1.70;99.90;;;;;;5018243;28;19913;-77
2023/01/21 07:29:08;;;;;;;;;;;-1.70;99.90;;;;;;5017808;28;19992;-78
2023/01/21 07:31:33;;;;;;;;;;;-1.60;99.90;;;;;;5001702;28;20348;-76
2023/01/21 07:33:59;;;;;;;;;;;-1.60;99.90;;;;;;5026616;28;19897;-75
2023/01/21 07:36:25;;;;;;;;;;;-1.60;99.90;;;;;;5027960;28;19925;-75
2023/01/21 07:38:50;;;;;;;;;;;-1.60;99.90;;;;;;5029188;28;20008;-76
2023/01/21 07:41:16;;;;;;;;;;;-1.50;99.90;;;;;;5033546;28;19910;-76
2023/01/21 07:43:42;;;;;;;;;;;-1.50;99.90;;;;;;5032795;28;19937;-75
2023/01/21 07:46:07;;;;;;;;;;;-1.50;99.90;;;;;;5012992;28;19914;-76
2023/01/21 07:48:33;;;;;;;;;;;-1.50;99.90;;;;;;5017327;28;20005;-77
2023/01/21 07:50:58;;;;;;;;;;;-1.50;99.90;;;;;;5016529;28;19909;-77
2023/01/21 07:53:24;;;;;;;;;;;-1.50;99.90;;;;;;4998916;28;19909;-77
2023/01/21 07:55:50;;;;;;;;;;;-1.50;99.90;;;;;;5000883;28;20008;-77
2023/01/21 07:58:15;;;;;;;;;;;-1.50;99.90;;;;;;5018540;28;19961;-77
2023/01/21 08:00:41;;;;;;;;;;;-1.60;99.90;;;;;;5008136;28;19929;-77
2023/01/21 08:03:07;;;;;;;;;;;-1.50;99.90;;;;;;5016440;28;20394;-77
2023/01/21 08:05:32;;;;;;;;;;;-1.50;99.90;;;;;;5016838;28;19914;-78
2023/01/21 08:07:58;;;;;;;;;;;-1.50;99.90;;;;;;5016479;28;20283;-77
2023/01/21 08:10:23;;;;;;;;;;;-1.50;99.90;;;;;;5015621;28;19914;-78
2023/01/21 08:12:49;;;;;;;;;;;-1.50;99.90;;;;;;5015970;28;20330;-78
2023/01/21 08:15:14;;;;;;;;;;;-1.50;99.90;;;;;;5018161;28;19978;-76
2023/01/21 08:17:43;;;;;;;;;;;-1.40;99.90;;;;;;5015750;28;20378;-78
2023/01/21 08:20:10;;;;;;;;;;;-1.50;99.90;;;;;;5015780;28;19914;-78
2023/01/21 08:22:36;;;;;;;;;;;-1.50;99.90;;;;;;5014802;28;20389;-78
2023/01/21 08:25:02;;;;;;;;;;;-1.40;99.90;;;;;;5016594;28;19938;-77
2023/01/21 08:27:27;;;;;;;;;;;-1.40;99.90;;;;;;5016137;28;20149;-78
2023/01/21 08:29:56;;;;;;;;;;;-1.50;99.90;;;;;;5015249;28;19994;-78
2023/01/21 08:32:21;;;;;;;;;;;-1.50;99.90;;;;;;4997931;28;19914;-78
2023/01/21 08:34:48;;;;;;;;;;;-1.40;99.90;;;;;;5015446;28;20213;-78
2023/01/21 08:37:14;;;;;;;;;;;-1.40;99.90;;;;;;5015008;28;20013;-78
2023/01/21 08:39:41;;;;;;;;;;;-1.40;99.90;;;;;;5017767;28;20145;-78
2023/01/21 08:42:07;;;;;;;;;;;-1.40;99.90;;;;;;5015614;28;19917;-77
2023/01/21 08:44:34;;;;;;;;;;;-1.40;99.90;;;;;;5018145;28;20338;-77
2023/01/21 08:46:59;;;;;;;;;;;-1.50;99.90;;;;;;5017539;28;19909;-78
2023/01/21 08:49:25;;;;;;;;;;;-1.40;99.90;;;;;;5015887;28;19909;-77
2023/01/21 08:51:50;;;;;;;;;;;-1.40;99.90;;;;;;5015190;28;19914;-78
2023/01/21 08:54:16;;;;;;;;;;;-1.30;99.90;;;;;;5014668;28;20068;-78
2023/01/21 08:56:41;;;;;;;;;;;-1.30;99.90;;;;;;5014966;28;20203;-78
2023/01/21 08:59:07;;;;;;;;;;;-1.30;99.90;;;;;;5015718;28;19917;-77
2023/01/21 09:01:34;;;;;;;;;;;-1.30;99.90;;;;;;5018110;28;19909;-77
2023/01/21 09:04:00;;;;;;;;;;;-1.30;99.90;;;;;;5016550;28;19913;-78
2023/01/21 09:06:27;;;;;;;;;;;-1.30;99.90;;;;;;5018443;28;19910;-78
2023/01/21 09:08:53;;;;;;;;;;;-1.20;99.90;;;;;;5015583;28;20265;-77
2023/01/21 09:11:18;;;;;;;;;;;-1.20;99.90;;;;;;5020371;28;19914;-78
2023/01/21 09:13:44;;;;;;;;;;;-1.10;99.90;;;;;;5020449;28;19909;-78
2023/01/21 09:16:11;;;;;;;;;;;-1.10;99.90;;;;;;5022122;28;19933;-79
2023/01/21 09:18:37;;;;;;;;;;;-1.10;99.90;;;;;;5019832;28;19935;-78
2023/01/21 09:21:03;;;;;;;;;;;-1.00;99.90;;;;;;5017797;28;19910;-78
2023/01/21 09:23:32;;;;;;;;;;;-0.90;99.90;;;;;;5017091;28;20425;-78
2023/01/21 09:26:03;;;;;;;;;;;-0.90;99.90;;;;;;5014500;28;19917;-78
2023/01/21 09:28:29;;;;;;;;;;;-0.90;99.90;;;;;;4993792;28;19909;-78
2023/01/21 09:31:15;;;;;;;;;;;-0.90;99.90;;;;;;5010851;28;19910;-78
2023/01/21 09:33:41;;;;;;;;;;;-0.80;99.90;;;;;;5013006;28;19921;-77
2023/01/21 09:36:08;;;;;;;;;;;-0.70;99.90;;;;;;5014294;28;20012;-78
2023/01/21 09:38:33;;;;;;;;;;;-0.80;99.90;;;;;;5014531;28;20393;-77
2023/01/21 09:41:12;;;;;;;;;;;-0.70;99.90;;;;;;5017198;28;19949;-78
2023/01/21 09:43:42;;;;;;;;;;;-0.80;99.90;;;;;;5017083;28;20002;-77
2023/01/21 09:46:13;;;;;;;;;;;-0.70;99.90;;;;;;5015843;28;20332;-78
2023/01/21 09:48:41;;;;;;;;;;;-0.70;99.90;;;;;;4996354;28;19918;-78
2023/01/21 09:51:14;;;;;;;;;;;-0.70;99.90;;;;;;5014457;28;20565;-77
2023/01/21 09:53:46;;;;;;;;;;;-0.70;99.90;;;;;;4996850;28;19917;-77
2023/01/21 09:56:20;;;;;;;;;;;-0.70;99.90;;;;;;5014736;28;20390;-77
2023/01/21 09:58:49;;;;;;;;;;;-0.60;99.90;;;;;;5014210;28;20012;-77
2023/01/21 10:01:27;;;;;;;;;;;-0.60;99.90;;;;;;5009286;28;19913;-77
2023/01/21 10:03:56;;;;;;;;;;;-0.70;99.90;;;;;;5007787;28;20389;-77
2023/01/21 10:06:42;;;;;;;;;;;-0.70;99.90;;;;;;5014624;28;20385;-76
2023/01/21 10:09:13;;;;;;;;;;;-0.70;99.90;;;;;;4996894;28;19921;-76
2023/01/21 10:11:51;;;;;;;;;;;-0.70;99.90;;;;;;5014870;28;19909;-76
2023/01/21 10:14:36;;;;;;;;;;;-0.70;99.90;;;;;;5013844;28;19920;-76
2023/01/21 10:17:07;;;;;;;;;;;-0.80;99.90;;;;;;5014475;28;19921;-76
2023/01/21 10:19:53;;;;;;;;;;;-0.80;99.90;;;;;;5002916;28;19971;-78
2023/01/21 10:22:28;;;;;;;;;;;-0.90;99.90;;;;;;5013659;28;20359;-77
2023/01/21 10:25:05;;;;;;;;;;;-0.80;99.90;;;;;;5013650;28;19914;-77
2023/01/21 10:27:32;;;;;;;;;;;-0.70;99.90;;;;;;5018152;28;19917;-78
2023/01/21 10:30:27;;;;;;;;;;;-0.70;99.90;;;;;;5016071;28;20003;-78
2023/01/21 10:32:53;;;;;;;;;;;-0.60;99.90;;;;;;4980128;28;20279;-77
2023/01/21 10:35:27;;;;;;;;;;;-0.60;99.90;;;;;;5013194;28;19920;-78
2023/01/21 10:37:56;;;;;;;;;;;-0.60;99.90;;;;;;5015469;28;19917;-77
2023/01/21 10:40:42;;;;;;;;;;;-0.70;99.90;;;;;;5016362;28;20444;-78
2023/01/21 10:43:14;;;;;;;;;;;-0.70;99.90;;;;;;5020082;28;19917;-77
2023/01/21 10:45:45;;;;;;;;;;;-0.70;99.90;;;;;;5033709;28;19913;-77
2023/01/21 10:48:29;;;;;;;;;;;-0.70;99.90;;;;;;5019649;28;19933;-76
2023/01/21 10:50:58;;;;;;;;;;;-0.60;99.90;;;;;;5019423;28;19937;-78
2023/01/21 10:53:43;;;;;;;;;;;-0.60;99.90;;;;;;5036026;28;19973;-76
2023/01/21 10:56:14;;;;;;;;;;;-0.60;99.90;;;;;;5034982;28;19905;-77
2023/01/21 10:58:43;;;;;;;;;;;-0.40;99.90;;;;;;5034698;28;19929;-77
2023/01/21 11:01:21;;;;;;;;;;;-0.30;99.90;;;;;;5009179;28;19909;-77
2023/01/21 11:03:49;;;;;;;;;;;-0.20;99.90;;;;;;5022985;28;19913;-77
2023/01/21 11:06:16;;;;;;;;;;;-0.20;99.90;;;;;;5020747;28;20341;-78
2023/01/21 11:08:42;;;;;;;;;;;-0.30;99.90;;;;;;5018777;28;19933;-77
2023/01/21 11:11:09;;;;;;;;;;;-0.50;99.90;;;;;;5018301;28;19910;-77
2023/01/21 11:13:34;;;;;;;;;;;-0.40;99.90;;;;;;5000957;28;19952;-77
2023/01/21 11:16:00;;;;;;;;;;;-0.40;99.90;;;;;;5020836;28;19928;-78
2023/01/21 11:18:32;;;;;;;;;;;-0.30;99.90;;;;;;5002983;28;19914;-78
2023/01/21 11:20:59;;;;;;;;;;;-0.30;99.90;;;;;;5019940;28;19909;-77
2023/01/21 11:23:25;;;;;;;;;;;-0.30;99.90;;;;;;5021191;28;19909;-77
2023/01/21 11:25:50;;;;;;;;;;;-0.30;99.90;;;;;;5023903;28;19917;-79
2023/01/21 11:28:23;;;;;;;;;;;-0.40;99.90;;;;;;5024612;28;19957;-78
2023/01/21 11:30:49;;;;;;;;;;;-0.30;99.90;;;;;;4998070;28;19913;-78
2023/01/21 11:33:18;;;;;;;;;;;-0.20;99.90;;;;;;5020017;28;19932;-77
2023/01/21 11:35:43;;;;;;;;;;;-0.20;99.90;;;;;;5016288;28;19922;-76
2023/01/21 11:38:27;;;;;;;;;;;-0.20;99.90;;;;;;5017968;28;19921;-78
2023/01/21 11:41:11;;;;;;;;;;;-0.20;99.90;;;;;;5017354;28;19918;-77
2023/01/21 11:43:41;;;;;;;;;;;-0.10;99.90;;;;;;5023613;28;19925;-78
2023/01/21 11:46:20;;;;;;;;;;;0.10;99.90;;;;;;5016040;28;19935;-78
2023/01/21 11:48:45;;;;;;;;;;;0.10;99.90;;;;;;5011266;28;19910;-78
2023/01/21 11:51:11;;;;;;;;;;;0.10;99.90;;;;;;5021896;28;19913;-78
2023/01/21 11:53:37;;;;;;;;;;;0.00;99.90;;;;;;5021326;28;20012;-76
2023/01/21 11:56:03;;;;;;;;;;;-0.10;99.90;;;;;;5021413;28;20441;-78
2023/01/21 11:58:32;;;;;;;;;;;-0.20;99.90;;;;;;5022365;28;19924;-79
2023/01/21 12:01:06;;;;;;;;;;;-0.20;99.90;;;;;;5024228;28;19973;-79
2023/01/21 12:03:44;;;;;;;;;;;-0.20;99.90;;;;;;4997772;28;19914;-78
2023/01/21 12:06:16;;;;;;;;;;;-0.20;99.90;;;;;;4998214;28;19910;-78
2023/01/21 12:08:42;;;;;;;;;;;-0.20;99.90;;;;;;5006650;28;19917;-79
2023/01/21 12:11:07;;;;;;;;;;;-0.20;99.90;;;;;;5024747;28;19910;-78
2023/01/21 12:13:52;;;;;;;;;;;-0.20;99.90;;;;;;5030559;28;19914;-78
2023/01/21 12:16:20;;;;;;;;;;;-0.20;99.90;;;;;;5029037;28;19968;-77
2023/01/21 12:19:06;;;;;;;;;;;-0.10;99.90;;;;;;5006647;28;19993;-78
2023/01/21 12:21:41;;;;;;;;;;;-0.10;99.90;;;;;;5009285;28;19918;-77
2023/01/21 12:24:27;;;;;;;;;;;0.00;99.90;;;;;;5028234;28;19927;-78
2023/01/21 12:27:11;;;;;;;;;;;0.00;99.90;;;;;;5013303;28;19909;-78
2023/01/21 12:29:46;;;;;;;;;;;0.00;99.90;;;;;;5029880;28;19914;-78
2023/01/21 12:32:19;;;;;;;;;;;0.00;99.90;;;;;;5014053;28;19989;-79
2023/01/21 12:34:47;;;;;;;;;;;0.00;99.90;;;;;;5028776;28;19913;-77
2023/01/21 12:37:31;;;;;;;;;;;0.00;99.90;;;;;;5020606;28;19898;-78
2023/01/21 12:39:58;;;;;;;;;;;0.10;99.90;;;;;;4995377;28;20013;-79
2023/01/21 12:42:28;;;;;;;;;;;0.00;99.90;;;;;;5026001;28;19910;-79
2023/01/21 12:45:03;;;;;;;;;;;0.00;99.90;;;;;;5005915;28;19973;-79
2023/01/21 12:47:39;;;;;;;;;;;-0.10;99.90;;;;;;5023319;28;19941;-79
2023/01/21 12:50:23;;;;;;;;;;;-0.10;99.90;;;;;;5010308;28;19915;-78
2023/01/21 12:52:57;;;;;;;;;;;-0.20;99.90;;;;;;5025171;28;19917;-79
2023/01/21 12:55:22;;;;;;;;;;;-0.20;99.90;;;;;;5026150;28;19909;-78
2023/01/21 12:58:02;;;;;;;;;;;-0.30;99.90;;;;;;5023703;28;20314;-78
2023/01/21 13:00:31;;;;;;;;;;;-0.20;99.90;;;;;;5019982;28;19916;-78
2023/01/21 13:03:20;;;;;;;;;;;-0.20;99.90;;;;;;5007254;28;19913;-79
2023/01/21 13:05:54;;;;;;;;;;;-0.20;99.90;;;;;;5029425;28;19920;-79
2023/01/21 13:08:25;;;;;;;;;;;-0.10;99.90;;;;;;5028869;28;19945;-78
2023/01/21 13:11:04;;;;;;;;;;;-0.10;99.90;;;;;;5029669;28;19913;-78
2023/01/21 13:13:50;;;;;;;;;;;0.00;99.90;;;;;;5026976;28;20393;-78
2023/01/21 13:16:16;;;;;;;;;;;0.00;99.90;;;;;;5024692;28;20020;-78
2023/01/21 13:18:43;;;;;;;;;;;-0.10;99.90;;;;;;5025987;28;19921;-79
2023/01/21 13:21:14;;;;;;;;;;;-0.10;99.90;;;;;;5027500;28;19909;-79
2023/01/21 13:23:44;;;;;;;;;;;-0.10;99.90;;;;;;5008795;28;19909;-78
2023/01/21 13:26:28;;;;;;;;;;;-0.10;99.90;;;;;;5027946;28;19910;-78
2023/01/21 13:28:57;;;;;;;;;;;-0.10;99.90;;;;;;5000854;28;19914;-80
2023/01/21 13:31:42;;;;;;;;;;;-0.10;99.90;;;;;;4985853;28;20294;-78
2023/01/21 13:34:11;;;;;;;;;;;-0.10;99.90;;;;;;5003564;28;19918;-77
2023/01/21 13:37:01;;;;;;;;;;;-0.20;99.90;;;;;;5017538;28;19964;-78
2023/01/21 13:39:33;;;;;;;;;;;-0.20;99.90;;;;;;5020002;28;19932;-78
2023/01/21 13:42:04;;;;;;;;;;;-0.30;99.90;;;;;;5022311;28;20004;-79
2023/01/21 13:44:39;;;;;;;;;;;-0.30;99.90;;;;;;5023388;28;19917;-78
2023/01/21 13:47:04;;;;;;;;;;;-0.30;99.90;;;;;;5029152;28;20386;-77
2023/01/21 13:49:39;;;;;;;;;;;-0.30;99.90;;;;;;5007138;28;19909;-78
2023/01/21 13:52:16;;;;;;;;;;;-0.30;99.90;;;;;;5024475;28;19910;-77
2023/01/21 13:54:46;;;;;;;;;;;-0.20;99.90;;;;;;5024112;28;19968;-78
2023/01/21 13:57:27;;;;;;;;;;;-0.10;99.90;;;;;;5025536;28;19917;-78
2023/01/21 13:59:57;;;;;;;;;;;-0.10;99.90;;;;;;5022354;28;20402;-79
2023/01/21 14:02:26;;;;;;;;;;;0.00;99.90;;;;;;5020623;28;19910;-79
2023/01/21 14:05:00;;;;;;;;;;;0.00;99.90;;;;;;5021031;28;20393;-77
2023/01/21 14:07:26;;;;;;;;;;;0.00;99.90;;;;;;5018027;28;19917;-78
2023/01/21 14:10:00;;;;;;;;;;;-0.10;99.90;;;;;;5018164;28;19909;-80
2023/01/21 14:12:37;;;;;;;;;;;-0.10;99.90;;;;;;4998104;28;19942;-77
2023/01/21 14:15:14;;;;;;;;;;;-0.10;99.90;;;;;;4995718;28;19910;-78
2023/01/21 14:17:40;;;;;;;;;;;-0.10;99.90;;;;;;5019044;28;20055;-78
2023/01/21 14:20:05;;;;;;;;;;;-0.10;99.90;;;;;;5010863;28;19910;-78
2023/01/21 14:22:31;;;;;;;;;;;-0.10;99.90;;;;;;4999740;28;19925;-78
2023/01/21 14:24:57;;;;;;;;;;;-0.20;99.90;;;;;;5012677;28;19920;-78
2023/01/21 14:27:23;;;;;;;;;;;-0.10;99.90;;;;;;5000080;28;20020;-79
2023/01/21 14:29:57;;;;;;;;;;;-0.20;99.90;;;;;;5011738;28;19910;-79
2023/01/21 14:32:27;;;;;;;;;;;-0.20;99.90;;;;;;5013995;28;19944;-78